Time;durP1;ratioP1;P1;durP2;ratioP2;P2;SDS_P1;SDS_P2;PMS_P1;PMS_P2;Temp;Humidity;BMP_temperature;BMP_pressure;BME280_temperature;BME280_humidity;BME280_pressure;Samples;Min_cycle;Max_cycle;Signal;HPM_P1;HPM_P2
2021/12/16 00:03:36;;;;;;;26.75;9.95;;;;;;;;;;5144490;28;20035;-60
2021/12/16 00:09:01;;;;;;;29.40;9.50;;;;;;;;;;5060835;28;20048;-60
2021/12/16 00:33:16;;;;;;;19.95;9.68;;;;;;;;;;5064488;28;20057;-61
2021/12/16 00:35:44;;;;;;;26.95;10.07;;;;;;;;;;5063772;28;20060;-60
2021/12/16 00:38:10;;;;;;;;;;;;;;;;;;5065057;28;20092;-60
2021/12/16 00:40:40;;;;;;;25.58;10.18;;;;;;;;;;5064064;28;19920;-60
2021/12/16 00:43:17;;;;;;;41.03;12.25;;;;;;;;;;5064314;28;20045;-61
2021/12/16 00:46:12;;;;;;;27.87;11.33;;;;;;;;;;5098409;27;20055;-61
2021/12/16 00:54:11;;;;;;;32.45;11.90;;;;;;;;;;5127193;28;20047;-60
2021/12/16 00:56:42;;;;;;;26.70;10.10;;;;;;;;;;5127211;28;20099;-60
2021/12/16 00:59:10;;;;;;;32.10;10.88;;;;;;;;;;5127235;28;20070;-60
2021/12/16 01:34:51;;;;;;;17.42;8.77;;;;;;;;;;5062369;28;20055;-60
2021/12/16 01:51:03;;;;;;;25.15;9.05;;;;;;;;;;5070865;28;20137;-60
2021/12/16 01:56:27;;;;;;;21.15;7.30;;;;;;;;;;5062754;28;20112;-59
2021/12/16 01:59:01;;;;;;;24.05;7.60;;;;;;;;;;5062932;28;20084;-60
2021/12/16 02:01:31;;;;;;;21.10;6.93;;;;;;;;;;5076837;28;20078;-60
2021/12/16 02:04:01;;;;;;;19.17;6.72;;;;;;;;;;5082798;28;20052;-59
2021/12/16 02:09:27;;;;;;;24.67;7.63;;;;;;;;;;5082393;28;20086;-62
2021/12/16 02:12:01;;;;;;;25.60;8.63;;;;;;;;;;5062461;28;20048;-60
2021/12/16 02:28:36;;;;;;;24.73;8.55;;;;;;;;;;5125510;28;20055;-60
2021/12/16 02:37:01;;;;;;;27.80;9.25;;;;;;;;;;5002127;28;20034;-60
2021/12/16 02:39:29;;;;;;;23.67;8.00;;;;;;;;;;5002269;28;20120;-60
2021/12/16 02:42:05;;;;;;;21.95;7.57;;;;;;;;;;5002408;28;20055;-60
2021/12/16 02:44:42;;;;;;;25.08;9.20;;;;;;;;;;5002612;28;20090;-60
2021/12/16 02:49:54;;;;;;;28.83;8.90;;;;;;;;;;5002560;28;20055;-60
2021/12/16 02:52:23;;;;;;;23.30;8.77;;;;;;;;;;5001881;28;20093;-60
2021/12/16 02:54:49;;;;;;;28.30;9.15;;;;;;;;;;5002526;28;20049;-60
2021/12/16 02:57:16;;;;;;;20.33;9.05;;;;;;;;;;5002061;28;20062;-59
2021/12/16 02:59:43;;;;;;;30.15;10.10;;;;;;;;;;4995541;28;20050;-59
2021/12/16 03:02:12;;;;;;;22.13;10.13;;;;;;;;;;5001841;28;20050;-60
2021/12/16 03:04:40;;;;;;;26.95;9.38;;;;;;;;;;5002424;28;20058;-59
2021/12/16 03:07:06;;;;;;;;;;;;;;;;;;4985419;28;20074;-60
2021/12/16 03:14:42;;;;;;;30.10;10.70;;;;;;;;;;5145236;27;20069;-60
2021/12/16 03:20:28;;;;;;;24.98;8.98;;;;;;;;;;5145844;28;20054;-60
2021/12/16 03:23:00;;;;;;;23.08;10.55;;;;;;;;;;5134369;28;20047;-60
2021/12/16 03:25:47;;;;;;;19.50;10.10;;;;;;;;;;5145385;28;20047;-60
2021/12/16 03:36:13;;;;;;;25.30;10.02;;;;;;;;;;5144566;28;20055;-60
2021/12/16 03:38:40;;;;;;;27.90;10.93;;;;;;;;;;5145135;28;20051;-60
2021/12/16 03:41:07;;;;;;;29.10;9.82;;;;;;;;;;5144696;28;20055;-60
2021/12/16 03:43:34;;;;;;;29.38;10.13;;;;;;;;;;5144919;28;20039;-60
2021/12/16 03:48:40;;;;;;;30.35;9.85;;;;;;;;;;5144928;28;20043;-60
2021/12/16 03:51:08;;;;;;;33.85;11.43;;;;;;;;;;5144467;27;20051;-60
2021/12/16 03:53:34;;;;;;;27.25;10.20;;;;;;;;;;5148261;27;20570;-60
2021/12/16 03:56:01;;;;;;;38.13;10.93;;;;;;;;;;5148790;27;20050;-60
2021/12/16 03:58:27;;;;;;;22.08;11.27;;;;;;;;;;5149004;27;20091;-60
2021/12/16 04:00:56;;;;;;;38.03;12.77;;;;;;;;;;5148916;27;20079;-61
2021/12/16 04:03:22;;;;;;;24.23;10.45;;;;;;;;;;5129654;27;20039;-60
2021/12/16 04:05:48;;;;;;;23.55;11.70;;;;;;;;;;5148343;27;20103;-60
2021/12/16 04:08:15;;;;;;;30.65;12.15;;;;;;;;;;5148863;27;20362;-60
2021/12/16 04:10:47;;;;;;;27.30;11.27;;;;;;;;;;5148602;27;20102;-60
2021/12/16 04:13:16;;;;;;;36.08;12.18;;;;;;;;;;5148657;27;20092;-60
2021/12/16 04:15:42;;;;;;;30.67;12.27;;;;;;;;;;5130175;27;20089;-60
2021/12/16 04:18:08;;;;;;;25.83;12.45;;;;;;;;;;5148712;27;20043;-59
2021/12/16 04:20:34;;;;;;;29.20;11.90;;;;;;;;;;5147975;27;20448;-59
2021/12/16 04:23:02;;;;;;;29.73;14.48;;;;;;;;;;5148141;27;20118;-60
2021/12/16 04:25:30;;;;;;;29.80;12.32;;;;;;;;;;5148313;27;20039;-59
2021/12/16 04:27:58;;;;;;;28.25;12.15;;;;;;;;;;5148863;27;20043;-61
2021/12/16 04:30:25;;;;;;;30.95;11.93;;;;;;;;;;5148504;27;20046;-60
2021/12/16 04:32:52;;;;;;;35.30;11.98;;;;;;;;;;5147915;27;20035;-59
2021/12/16 04:35:18;;;;;;;28.38;12.85;;;;;;;;;;5147768;27;20133;-60
2021/12/16 04:37:45;;;;;;;34.15;11.80;;;;;;;;;;5148376;27;20043;-59
2021/12/16 04:40:12;;;;;;;32.97;14.05;;;;;;;;;;5147895;27;20050;-60
2021/12/16 04:42:38;;;;;;;38.58;13.75;;;;;;;;;;5148384;27;20047;-60
2021/12/16 04:45:06;;;;;;;32.80;12.55;;;;;;;;;;5129603;27;20103;-60
2021/12/16 04:47:33;;;;;;;28.73;12.77;;;;;;;;;;5148060;27;20043;-60
2021/12/16 04:49:59;;;;;;;32.22;13.60;;;;;;;;;;5147744;27;20054;-60
2021/12/16 04:52:26;;;;;;;30.63;12.80;;;;;;;;;;5146582;27;20074;-59
2021/12/16 04:54:52;;;;;;;31.95;13.55;;;;;;;;;;5147565;27;20099;-59
2021/12/16 04:57:18;;;;;;;36.03;14.65;;;;;;;;;;5147992;27;20507;-61
2021/12/16 04:59:45;;;;;;;33.20;13.73;;;;;;;;;;5147770;27;20036;-60
2021/12/16 05:02:16;;;;;;;41.67;13.65;;;;;;;;;;5147287;27;20043;-60
2021/12/16 05:04:43;;;;;;;32.88;14.48;;;;;;;;;;5147691;27;20102;-60
2021/12/16 05:07:09;;;;;;;26.05;13.50;;;;;;;;;;5128829;27;20047;-60
2021/12/16 05:12:10;;;;;;;38.38;14.70;;;;;;;;;;5146618;27;20047;-60
2021/12/16 05:14:37;;;;;;;35.13;13.30;;;;;;;;;;5147808;27;20305;-58
2021/12/16 05:17:09;;;;;;;39.67;16.08;;;;;;;;;;5146835;27;20067;-61
2021/12/16 05:19:35;;;;;;;42.17;15.77;;;;;;;;;;5147260;27;20050;-58
2021/12/16 05:25:05;;;;;;;39.88;16.05;;;;;;;;;;5063445;28;20044;-61
2021/12/16 05:27:31;;;;;;;45.63;16.85;;;;;;;;;;5063383;28;20049;-60
2021/12/16 05:29:58;;;;;;;44.47;15.90;;;;;;;;;;5063974;28;20045;-59
2021/12/16 05:32:24;;;;;;;38.72;16.40;;;;;;;;;;5063194;28;20139;-59
2021/12/16 05:34:50;;;;;;;45.92;15.43;;;;;;;;;;5063596;28;20068;-60
2021/12/16 05:37:16;;;;;;;44.85;15.38;;;;;;;;;;5062793;28;20059;-60
2021/12/16 05:39:43;;;;;;;34.35;14.57;;;;;;;;;;5062902;28;20112;-60
2021/12/16 05:42:09;;;;;;;39.70;15.10;;;;;;;;;;5063233;28;20060;-61
2021/12/16 05:44:36;;;;;;;39.33;14.80;;;;;;;;;;5063584;28;20053;-61
2021/12/16 05:47:02;;;;;;;34.03;14.32;;;;;;;;;;5062719;28;20143;-59
2021/12/16 05:49:28;;;;;;;33.42;13.60;;;;;;;;;;5063111;28;20141;-60
2021/12/16 05:51:54;;;;;;;34.20;15.18;;;;;;;;;;5062086;28;20044;-60
2021/12/16 05:54:21;;;;;;;34.90;14.23;;;;;;;;;;5062690;28;20044;-60
2021/12/16 05:56:48;;;;;;;37.72;14.57;;;;;;;;;;5063023;28;20045;-60
2021/12/16 05:59:17;;;;;;;27.25;13.95;;;;;;;;;;5107187;27;20043;-60
2021/12/16 06:01:46;;;;;;;45.72;15.50;;;;;;;;;;5146268;27;20048;-60
2021/12/16 06:04:12;;;;;;;45.50;15.55;;;;;;;;;;5146581;27;20035;-60
2021/12/16 06:06:39;;;;;;;40.90;14.57;;;;;;;;;;5145946;27;20050;-60
2021/12/16 06:09:06;;;;;;;38.63;15.43;;;;;;;;;;5146460;27;20072;-60
2021/12/16 06:11:33;;;;;;;32.65;13.52;;;;;;;;;;5146384;27;20035;-59
2021/12/16 06:14:13;;;;;;;34.50;13.68;;;;;;;;;;5146441;27;20045;-60
2021/12/16 06:22:35;;;;;;;35.45;13.80;;;;;;;;;;5145362;27;20100;-59
2021/12/16 06:27:50;;;;;;;28.42;14.15;;;;;;;;;;5145181;27;20078;-61
2021/12/16 06:30:37;;;;;;;32.92;14.15;;;;;;;;;;5144118;27;20078;-60
2021/12/16 06:33:05;;;;;;;39.13;15.77;;;;;;;;;;5143918;27;20065;-60
2021/12/16 06:35:31;;;;;;;34.00;15.15;;;;;;;;;;5144692;27;20177;-61
2021/12/16 06:37:57;;;;;;;41.63;14.52;;;;;;;;;;5140319;27;20031;-60
2021/12/16 06:40:24;;;;;;;37.03;14.85;;;;;;;;;;5144761;27;20084;-60
2021/12/16 06:42:53;;;;;;;35.92;15.35;;;;;;;;;;5143658;27;20051;-61
2021/12/16 06:45:25;;;;;;;38.70;16.92;;;;;;;;;;5141110;27;20043;-61
2021/12/16 06:48:05;;;;;;;42.10;16.88;;;;;;;;;;5143345;27;20110;-60
2021/12/16 06:50:44;;;;;;;41.35;17.63;;;;;;;;;;5143694;27;20244;-61
2021/12/16 06:53:12;;;;;;;38.08;17.67;;;;;;;;;;5144521;27;20042;-61
2021/12/16 06:55:45;;;;;;;37.20;17.05;;;;;;;;;;5145138;27;20047;-61
2021/12/16 06:58:22;;;;;;;40.85;15.35;;;;;;;;;;5125456;28;20100;-60
2021/12/16 07:00:51;;;;;;;51.45;16.67;;;;;;;;;;5136706;27;20114;-59
2021/12/16 07:03:19;;;;;;;37.63;15.57;;;;;;;;;;5144917;27;20047;-60
2021/12/16 07:05:47;;;;;;;39.00;16.50;;;;;;;;;;5126935;28;20047;-60
2021/12/16 07:08:14;;;;;;;45.60;15.98;;;;;;;;;;5144975;27;20043;-60
2021/12/16 07:10:45;;;;;;;;;;;;;;;;;;5145793;27;20039;-59
2021/12/16 07:13:17;;;;;;;40.78;16.40;;;;;;;;;;5145153;27;19982;-60
2021/12/16 07:15:43;;;;;;;45.25;15.23;;;;;;;;;;5145206;27;20047;-61
2021/12/16 07:18:09;;;;;;;49.72;17.50;;;;;;;;;;5145055;27;20047;-59
2021/12/16 07:20:36;;;;;;;38.15;16.20;;;;;;;;;;5144659;27;20071;-60
2021/12/16 07:23:04;;;;;;;46.15;17.17;;;;;;;;;;5145056;28;20116;-59
2021/12/16 07:25:30;;;;;;;40.58;16.42;;;;;;;;;;5144305;28;20157;-60
2021/12/16 07:27:56;;;;;;;48.17;17.85;;;;;;;;;;5147360;27;20102;-60
2021/12/16 07:30:23;;;;;;;33.17;16.60;;;;;;;;;;5149297;27;20068;-60
2021/12/16 07:32:49;;;;;;;44.53;17.05;;;;;;;;;;5149634;27;20039;-60
2021/12/16 07:35:17;;;;;;;43.85;16.73;;;;;;;;;;5140035;27;20073;-60
2021/12/16 07:37:43;;;;;;;50.17;17.00;;;;;;;;;;5142324;27;20053;-59
2021/12/16 07:40:11;;;;;;;48.05;17.98;;;;;;;;;;5130929;27;20081;-60
2021/12/16 07:42:59;;;;;;;47.97;18.92;;;;;;;;;;5149655;27;20047;-60
2021/12/16 07:45:26;;;;;;;38.85;16.42;;;;;;;;;;5149716;27;20050;-61
2021/12/16 07:47:52;;;;;;;50.50;18.83;;;;;;;;;;5149714;27;20130;-59
2021/12/16 07:50:19;;;;;;;49.00;18.42;;;;;;;;;;5147604;27;20047;-60
2021/12/16 07:52:45;;;;;;;51.45;19.17;;;;;;;;;;5149456;27;20126;-60
2021/12/16 07:55:12;;;;;;;46.63;18.92;;;;;;;;;;5149176;27;20100;-59
2021/12/16 07:57:38;;;;;;;41.28;18.45;;;;;;;;;;5130655;27;20055;-60
2021/12/16 08:00:08;;;;;;;49.45;18.02;;;;;;;;;;5149125;27;20058;-59
2021/12/16 08:02:34;;;;;;;40.00;17.83;;;;;;;;;;5149021;27;20051;-60
2021/12/16 08:05:02;;;;;;;44.45;19.48;;;;;;;;;;5129115;27;20075;-59
2021/12/16 08:07:28;;;;;;;;;;;;;;;;;;5148496;27;20054;-60
2021/12/16 08:09:54;;;;;;;53.40;19.30;;;;;;;;;;5148836;27;19919;-59
2021/12/16 08:12:20;;;;;;;45.08;19.00;;;;;;;;;;5148744;27;20050;-60
2021/12/16 08:14:47;;;;;;;60.17;21.45;;;;;;;;;;5149042;27;20047;-60
2021/12/16 08:17:14;;;;;;;56.13;20.33;;;;;;;;;;5148263;27;20043;-60
2021/12/16 08:19:41;;;;;;;52.90;21.00;;;;;;;;;;5148574;27;20081;-60
2021/12/16 08:22:07;;;;;;;51.13;21.42;;;;;;;;;;5148039;27;20307;-61
2021/12/16 08:24:34;;;;;;;48.63;19.83;;;;;;;;;;5148610;27;20047;-60
2021/12/16 08:27:00;;;;;;;65.80;21.20;;;;;;;;;;5148551;27;20043;-61
2021/12/16 08:29:26;;;;;;;49.85;20.08;;;;;;;;;;5148450;27;20102;-59
2021/12/16 08:31:52;;;;;;;58.47;21.25;;;;;;;;;;5148303;27;20125;-60
2021/12/16 08:34:19;;;;;;;53.47;19.05;;;;;;;;;;5148482;27;20069;-60
2021/12/16 08:36:46;;;;;;;45.15;19.85;;;;;;;;;;5147755;27;20078;-60
2021/12/16 08:39:13;;;;;;;50.58;21.85;;;;;;;;;;5141410;27;20039;-60
2021/12/16 08:41:44;;;;;;;49.50;20.20;;;;;;;;;;5148229;27;20062;-60
2021/12/16 08:44:10;;;;;;;50.45;18.65;;;;;;;;;;5148604;27;20046;-60
2021/12/16 08:46:38;;;;;;;52.67;19.13;;;;;;;;;;5129764;27;20126;-60
2021/12/16 08:49:05;;;;;;;41.47;19.85;;;;;;;;;;5127214;28;20110;-61
2021/12/16 08:51:34;;;;;;;46.28;18.60;;;;;;;;;;5135502;27;20162;-60
2021/12/16 08:54:00;;;;;;;45.25;19.08;;;;;;;;;;5138878;27;20066;-60
2021/12/16 08:56:27;;;;;;;53.90;21.02;;;;;;;;;;5140435;27;20178;-61
2021/12/16 08:58:54;;;;;;;48.70;19.67;;;;;;;;;;5147702;27;20266;-60
2021/12/16 09:01:22;;;;;;;52.85;18.77;;;;;;;;;;5146911;27;20047;-60
2021/12/16 09:03:49;;;;;;;50.45;19.63;;;;;;;;;;5147307;27;20082;-60
2021/12/16 09:06:15;;;;;;;52.10;19.35;;;;;;;;;;5146731;27;20046;-60
2021/12/16 09:08:41;;;;;;;52.83;19.73;;;;;;;;;;5142315;27;20075;-60
2021/12/16 09:11:09;;;;;;;57.35;20.88;;;;;;;;;;5147486;27;20058;-60
2021/12/16 09:13:38;;;;;;;59.53;20.95;;;;;;;;;;5146490;27;20051;-60
2021/12/16 09:16:06;;;;;;;55.80;21.48;;;;;;;;;;5144131;27;20047;-60
2021/12/16 09:18:33;;;;;;;57.20;22.02;;;;;;;;;;5147155;27;20375;-61
2021/12/16 09:21:00;;;;;;;69.25;23.05;;;;;;;;;;5127973;27;20039;-61
2021/12/16 09:23:27;;;;;;;68.93;23.50;;;;;;;;;;5128799;27;20078;-60
2021/12/16 09:25:53;;;;;;;69.97;25.70;;;;;;;;;;5147037;27;20055;-60
2021/12/16 09:28:20;;;;;;;83.00;25.00;;;;;;;;;;5132669;27;20205;-60
2021/12/16 09:30:47;;;;;;;62.97;26.02;;;;;;;;;;5144700;27;20460;-60
2021/12/16 09:33:15;;;;;;;84.40;26.60;;;;;;;;;;5146750;27;20074;-61
2021/12/16 09:35:43;;;;;;;74.82;25.05;;;;;;;;;;5145966;27;20045;-61
2021/12/16 09:38:10;;;;;;;58.72;24.85;;;;;;;;;;5127976;27;20102;-60
2021/12/16 09:40:39;;;;;;;72.00;24.77;;;;;;;;;;5138567;27;20096;-60
2021/12/16 09:43:08;;;;;;;103.57;25.48;;;;;;;;;;5107903;28;20098;-59
2021/12/16 09:45:34;;;;;;;117.80;27.25;;;;;;;;;;5126442;28;20048;-59
2021/12/16 09:48:00;;;;;;;95.68;25.80;;;;;;;;;;5126220;28;20180;-60
2021/12/16 09:50:29;;;;;;;70.88;24.20;;;;;;;;;;5131300;27;20046;-60
2021/12/16 09:52:55;;;;;;;100.20;24.55;;;;;;;;;;5146970;27;20047;-60
2021/12/16 09:55:22;;;;;;;95.78;24.80;;;;;;;;;;5128551;27;20478;-60
2021/12/16 09:57:48;;;;;;;110.63;23.70;;;;;;;;;;5146629;27;20089;-60
2021/12/16 10:00:15;;;;;;;109.90;26.05;;;;;;;;;;5146687;27;20180;-60
2021/12/16 10:02:42;;;;;;;86.28;23.13;;;;;;;;;;5146260;27;20082;-60
2021/12/16 10:05:09;;;;;;;117.93;23.63;;;;;;;;;;5146312;27;20088;-61
2021/12/16 10:07:38;;;;;;;208.82;28.30;;;;;;;;;;5146742;27;20070;-60
2021/12/16 10:10:09;;;;;;;114.03;23.10;;;;;;;;;;5131423;27;20597;-59
2021/12/16 10:12:41;;;;;;;123.22;22.77;;;;;;;;;;5107577;28;20049;-59
2021/12/16 10:17:54;;;;;;;125.60;20.52;;;;;;;;;;5146429;27;20065;-60
2021/12/16 10:20:23;;;;;;;131.90;23.98;;;;;;;;;;5145787;27;20577;-61
2021/12/16 10:22:51;;;;;;;140.95;21.35;;;;;;;;;;5127601;27;20085;-60
2021/12/16 10:25:31;;;;;;;135.80;19.80;;;;;;;;;;5146503;27;20043;-60
2021/12/16 10:27:59;;;;;;;166.93;20.25;;;;;;;;;;5145857;27;20103;-59
2021/12/16 10:30:34;;;;;;;96.13;20.48;;;;;;;;;;5145622;27;20046;-60
2021/12/16 10:33:09;;;;;;;155.02;24.23;;;;;;;;;;5145833;27;20089;-59
2021/12/16 10:35:35;;;;;;;96.15;21.02;;;;;;;;;;5144914;27;20106;-60
2021/12/16 10:38:04;;;;;;;145.80;24.13;;;;;;;;;;5145595;27;20047;-60
2021/12/16 10:40:30;;;;;;;133.57;20.42;;;;;;;;;;5136399;27;20130;-60
2021/12/16 10:42:58;;;;;;;129.85;21.70;;;;;;;;;;5137931;27;20047;-60
2021/12/16 10:45:34;;;;;;;98.47;23.10;;;;;;;;;;5145386;27;20058;-60
2021/12/16 10:48:21;;;;;;;116.25;20.98;;;;;;;;;;5141023;27;20046;-60
2021/12/16 10:51:06;;;;;;;197.25;24.92;;;;;;;;;;5144590;27;20148;-60
2021/12/16 10:53:44;;;;;;;123.25;20.90;;;;;;;;;;5145089;27;20510;-61
2021/12/16 10:56:10;;;;;;;132.85;21.42;;;;;;;;;;5126633;27;20051;-59
2021/12/16 10:58:54;;;;;;;162.98;24.15;;;;;;;;;;5140512;27;20085;-60
2021/12/16 11:01:34;;;;;;;99.75;21.92;;;;;;;;;;5145255;27;20051;-60
2021/12/16 11:04:01;;;;;;;113.95;19.23;;;;;;;;;;5127194;27;20051;-60
2021/12/16 11:06:32;;;;;;;169.20;24.10;;;;;;;;;;5145376;27;20075;-60
2021/12/16 11:09:16;;;;;;;127.53;22.13;;;;;;;;;;5145526;27;20051;-61
2021/12/16 11:11:43;;;;;;;111.28;22.60;;;;;;;;;;5132413;27;20067;-61
2021/12/16 11:14:09;;;;;;;113.78;21.92;;;;;;;;;;5145119;27;20070;-60
2021/12/16 11:16:36;;;;;;;125.63;22.30;;;;;;;;;;5136438;27;20039;-60
2021/12/16 11:19:03;;;;;;;107.25;22.23;;;;;;;;;;5145465;27;20122;-61
2021/12/16 11:21:42;;;;;;;84.20;20.30;;;;;;;;;;5126179;28;20055;-61
2021/12/16 11:24:24;;;;;;;84.15;22.27;;;;;;;;;;5145567;27;20297;-60
2021/12/16 11:26:51;;;;;;;116.95;25.20;;;;;;;;;;5145558;28;20078;-60
2021/12/16 11:29:18;;;;;;;142.30;26.20;;;;;;;;;;5138029;28;20091;-60
2021/12/16 11:31:47;;;;;;;111.97;21.80;;;;;;;;;;5136445;28;20050;-60
2021/12/16 11:34:19;;;;;;;94.20;21.65;;;;;;;;;;5143104;28;20444;-60
2021/12/16 11:36:46;;;;;;;107.65;23.13;;;;;;;;;;5143513;28;20050;-60
2021/12/16 11:39:13;;;;;;;114.10;21.88;;;;;;;;;;5124681;28;20118;-60
2021/12/16 11:41:40;;;;;;;84.15;22.20;;;;;;;;;;5145073;28;20055;-61
2021/12/16 11:44:09;;;;;;;107.22;23.05;;;;;;;;;;5145010;28;20043;-59
2021/12/16 11:46:38;;;;;;;106.82;23.08;;;;;;;;;;5144625;28;20047;-61
2021/12/16 11:49:11;;;;;;;81.45;24.35;;;;;;;;;;5126849;28;20489;-61
2021/12/16 11:51:50;;;;;;;90.75;24.70;;;;;;;;;;5143965;28;20054;-59
2021/12/16 11:54:16;;;;;;;;;;;;;;;;;;5145622;28;20039;-59
2021/12/16 11:56:45;;;;;;;114.60;25.02;;;;;;;;;;5145371;28;20283;-60
2021/12/16 11:59:12;;;;;;;101.13;25.13;;;;;;;;;;5145424;28;20043;-60
2021/12/16 12:01:39;;;;;;;99.95;25.63;;;;;;;;;;5144686;28;20092;-61
2021/12/16 12:04:11;;;;;;;84.40;24.92;;;;;;;;;;5126526;28;20089;-59
2021/12/16 12:06:40;;;;;;;123.03;27.05;;;;;;;;;;5144431;28;20047;-60
2021/12/16 12:09:07;;;;;;;77.68;23.58;;;;;;;;;;5145011;28;20051;-59
2021/12/16 12:11:35;;;;;;;83.55;24.58;;;;;;;;;;5144748;28;20118;-60
2021/12/16 12:14:06;;;;;;;115.68;24.60;;;;;;;;;;5148033;27;20040;-60
2021/12/16 12:16:40;;;;;;;88.40;23.40;;;;;;;;;;5147990;27;20053;-61
2021/12/16 12:19:17;;;;;;;95.07;22.75;;;;;;;;;;5148778;27;20055;-61
2021/12/16 12:21:44;;;;;;;99.60;20.75;;;;;;;;;;5148135;27;20086;-59
2021/12/16 12:24:11;;;;;;;;;;;;;;;;;;5149104;27;20039;-59
2021/12/16 12:26:50;;;;;;;126.57;22.98;;;;;;;;;;5148565;27;19927;-60
2021/12/16 12:29:22;;;;;;;92.72;21.83;;;;;;;;;;5148074;27;20051;-61
2021/12/16 12:31:50;;;;;;;97.65;21.33;;;;;;;;;;5148607;27;20074;-60
2021/12/16 12:34:17;;;;;;;105.68;24.92;;;;;;;;;;5148525;27;20065;-61
2021/12/16 12:36:44;;;;;;;107.35;24.15;;;;;;;;;;5129332;27;20082;-61
2021/12/16 12:39:11;;;;;;;92.70;23.40;;;;;;;;;;5129553;27;20550;-60
2021/12/16 12:41:38;;;;;;;100.05;22.48;;;;;;;;;;5148350;27;20746;-60
2021/12/16 12:44:05;;;;;;;73.47;21.85;;;;;;;;;;5148377;27;20046;-61
2021/12/16 12:46:38;;;;;;;75.43;24.17;;;;;;;;;;5148200;27;20042;-60
2021/12/16 12:49:06;;;;;;;83.30;23.55;;;;;;;;;;5147860;27;20043;-60
2021/12/16 12:51:41;;;;;;;71.28;24.73;;;;;;;;;;5147607;27;20065;-60
2021/12/16 12:54:25;;;;;;;88.47;25.67;;;;;;;;;;5148247;27;20155;-60
2021/12/16 12:56:51;;;;;;;72.28;21.67;;;;;;;;;;5147124;27;20089;-60
2021/12/16 12:59:18;;;;;;;71.97;23.73;;;;;;;;;;5146847;27;20099;-61
2021/12/16 13:01:50;;;;;;;58.00;22.85;;;;;;;;;;5147724;27;20046;-60
2021/12/16 13:04:16;;;;;;;81.50;23.35;;;;;;;;;;5148242;27;20039;-60
2021/12/16 13:06:50;;;;;;;67.40;23.65;;;;;;;;;;5147334;27;20035;-60
2021/12/16 13:09:24;;;;;;;59.67;22.70;;;;;;;;;;5147861;27;20421;-60
2021/12/16 13:11:50;;;;;;;62.78;22.45;;;;;;;;;;5147856;27;20047;-60
2021/12/16 13:14:25;;;;;;;62.70;21.23;;;;;;;;;;5147390;27;20058;-60
2021/12/16 13:17:16;;;;;;;47.53;21.25;;;;;;;;;;5147482;27;20483;-61
2021/12/16 13:28:20;;;;;;;74.72;23.30;;;;;;;;;;5147922;27;20051;-60
2021/12/16 13:31:02;;;;;;;59.17;22.13;;;;;;;;;;5126788;28;20054;-60
2021/12/16 13:33:43;;;;;;;74.68;24.52;;;;;;;;;;5146685;27;20048;-59
2021/12/16 13:36:18;;;;;;;60.55;22.60;;;;;;;;;;5146370;27;20043;-60
2021/12/16 13:38:49;;;;;;;65.63;23.33;;;;;;;;;;5129188;27;20072;-62
2021/12/16 13:41:17;;;;;;;67.55;25.23;;;;;;;;;;5147055;27;20063;-60
2021/12/16 13:44:08;;;;;;;68.15;24.05;;;;;;;;;;5128566;27;20111;-60
2021/12/16 13:46:55;;;;;;;59.75;23.77;;;;;;;;;;5146575;27;20081;-60
2021/12/16 14:01:18;;;;;;;56.65;19.67;;;;;;;;;;5146420;27;20795;-60
2021/12/16 14:06:38;;;;;;;37.00;15.05;;;;;;;;;;5146366;27;20093;-62
2021/12/16 14:09:22;;;;;;;38.47;12.90;;;;;;;;;;5146343;27;20073;-59
2021/12/16 14:17:55;;;;;;;34.30;12.25;;;;;;;;;;5061297;28;20052;-59
2021/12/16 14:23:15;;;;;;;24.40;9.65;;;;;;;;;;5062104;28;20075;-60
2021/12/16 14:47:08;;;;;;;35.20;12.30;;;;;;;;;;5051504;28;20041;-60
2021/12/16 14:49:41;;;;;;;45.55;13.20;;;;;;;;;;5057204;28;20060;-59
2021/12/16 14:52:13;;;;;;;45.17;14.40;;;;;;;;;;5058775;28;20479;-59
2021/12/16 14:54:51;;;;;;;46.38;14.68;;;;;;;;;;5139701;27;20054;-61
2021/12/16 14:57:21;;;;;;;47.63;14.02;;;;;;;;;;5144550;27;20053;-61
2021/12/16 14:59:47;;;;;;;48.97;15.52;;;;;;;;;;5144844;27;20039;-60
2021/12/16 15:02:14;;;;;;;51.25;15.38;;;;;;;;;;5139732;27;20134;-60
2021/12/16 15:04:40;;;;;;;56.85;18.00;;;;;;;;;;5145367;27;20039;-59
2021/12/16 15:07:10;;;;;;;60.30;16.73;;;;;;;;;;5126071;27;20470;-59
2021/12/16 15:09:39;;;;;;;57.30;16.83;;;;;;;;;;5135013;27;20106;-59
2021/12/16 15:12:51;;;;;;;61.13;17.50;;;;;;;;;;5138146;27;20047;-60
2021/12/16 15:15:16;;;;;;;56.55;14.95;;;;;;;;;;5133580;27;20432;-60
2021/12/16 15:45:10;;;;;;;48.92;16.67;;;;;;;;;;5144152;28;20043;-60
2021/12/16 15:47:40;;;;;;;66.25;18.15;;;;;;;;;;5144766;27;20044;-60
2021/12/16 15:50:11;;;;;;;66.97;18.52;;;;;;;;;;5148257;27;20628;-60
2021/12/16 15:52:48;;;;;;;57.15;18.52;;;;;;;;;;5144551;27;20043;-61
2021/12/16 15:55:21;;;;;;;75.22;19.42;;;;;;;;;;5148728;27;20103;-59
2021/12/16 15:57:47;;;;;;;61.65;17.85;;;;;;;;;;5148660;27;20098;-60
2021/12/16 16:00:16;;;;;;;69.82;18.38;;;;;;;;;;5149177;27;20468;-60
2021/12/16 16:02:42;;;;;;;69.78;19.85;;;;;;;;;;5130131;27;20047;-60
2021/12/16 16:05:09;;;;;;;69.00;19.65;;;;;;;;;;5148515;27;20498;-60
2021/12/16 16:07:36;;;;;;;73.78;19.80;;;;;;;;;;5149033;27;20047;-60
2021/12/16 16:10:04;;;;;;;87.60;20.73;;;;;;;;;;5140677;27;20098;-61
2021/12/16 16:12:32;;;;;;;59.60;20.35;;;;;;;;;;5148429;27;20122;-61
2021/12/16 16:15:05;;;;;;;;;;;;;;;;;;5130809;27;20067;-60
2021/12/16 16:17:40;;;;;;;77.10;20.65;;;;;;;;;;5147974;27;19919;-60
2021/12/16 16:20:06;;;;;;;67.60;19.83;;;;;;;;;;5147849;27;20065;-60
2021/12/16 16:22:32;;;;;;;87.10;22.25;;;;;;;;;;5148495;27;20130;-61
2021/12/16 16:24:59;;;;;;;97.57;22.55;;;;;;;;;;5129872;27;20043;-60
2021/12/16 16:27:28;;;;;;;83.80;22.05;;;;;;;;;;5148024;27;20051;-60
2021/12/16 16:29:55;;;;;;;100.55;24.10;;;;;;;;;;5148359;27;20076;-61
2021/12/16 16:32:23;;;;;;;;;;;;;;;;;;5148218;27;20103;-59
2021/12/16 16:34:54;;;;;;;81.22;23.17;;;;;;;;;;5141133;27;20034;-60
2021/12/16 16:37:22;;;;;;;103.30;23.85;;;;;;;;;;5147135;27;20453;-59
2021/12/16 16:39:59;;;;;;;76.78;23.42;;;;;;;;;;5147374;27;20062;-60
2021/12/16 16:42:31;;;;;;;90.05;25.60;;;;;;;;;;5146567;27;20071;-60
2021/12/16 16:44:58;;;;;;;109.97;27.02;;;;;;;;;;5134048;27;20405;-60
2021/12/16 16:47:36;;;;;;;113.65;25.67;;;;;;;;;;5136981;27;20043;-60
2021/12/16 16:50:05;;;;;;;116.97;26.45;;;;;;;;;;5147035;27;20484;-61
2021/12/16 16:52:35;;;;;;;126.53;26.02;;;;;;;;;;5140933;27;20110;-60
2021/12/16 16:55:19;;;;;;;111.15;25.45;;;;;;;;;;5147589;27;20054;-61
2021/12/16 16:57:47;;;;;;;121.45;24.92;;;;;;;;;;5141007;27;20035;-61
2021/12/16 17:00:18;;;;;;;125.35;26.02;;;;;;;;;;5139729;27;20043;-61
2021/12/16 17:02:53;;;;;;;120.28;28.20;;;;;;;;;;5146001;27;20126;-60
2021/12/16 17:05:21;;;;;;;139.52;29.02;;;;;;;;;;5144108;27;20562;-61
2021/12/16 17:07:53;;;;;;;141.07;28.33;;;;;;;;;;5146055;27;20045;-60
2021/12/16 17:10:19;;;;;;;146.88;27.42;;;;;;;;;;5127398;27;20135;-60
2021/12/16 17:12:46;;;;;;;153.52;28.40;;;;;;;;;;5145724;27;20035;-60
2021/12/16 17:18:17;;;;;;;154.55;30.02;;;;;;;;;;5069871;28;20037;-61
2021/12/16 17:20:43;;;;;;;173.23;30.17;;;;;;;;;;5065150;28;20451;-60
2021/12/16 17:23:13;;;;;;;173.43;31.50;;;;;;;;;;5067123;28;20140;-60
2021/12/16 17:25:39;;;;;;;172.93;31.25;;;;;;;;;;5065339;28;20183;-60
2021/12/16 17:28:05;;;;;;;160.20;30.73;;;;;;;;;;5064016;28;20076;-60
2021/12/16 17:30:34;;;;;;;115.47;26.95;;;;;;;;;;5063348;28;20090;-61
2021/12/16 17:33:00;;;;;;;139.05;28.80;;;;;;;;;;5076953;28;21638;-61
2021/12/16 17:35:30;;;;;;;147.25;29.90;;;;;;;;;;5058521;28;20052;-61
2021/12/16 17:38:04;;;;;;;180.57;31.00;;;;;;;;;;5076206;28;20052;-60
2021/12/16 17:40:37;;;;;;;179.90;31.30;;;;;;;;;;5070959;28;20607;-60
2021/12/16 17:43:06;;;;;;;157.27;29.98;;;;;;;;;;5070522;28;20052;-59
2021/12/16 17:45:34;;;;;;;171.02;31.85;;;;;;;;;;5072876;28;20041;-61
2021/12/16 17:48:02;;;;;;;148.48;30.85;;;;;;;;;;5071827;28;20052;-62
2021/12/16 17:50:30;;;;;;;120.00;27.50;;;;;;;;;;5054635;28;20090;-60
2021/12/16 17:52:56;;;;;;;;;;;;;;;;;;5070979;28;20075;-61
2021/12/16 17:55:42;;;;;;;141.55;29.55;;;;;;;;;;5133917;27;19946;-61
2021/12/16 17:58:10;;;;;;;140.52;29.30;;;;;;;;;;5145734;27;20092;-59
2021/12/16 18:00:38;;;;;;;101.97;26.98;;;;;;;;;;5145283;27;20175;-61
2021/12/16 18:03:05;;;;;;;105.93;26.33;;;;;;;;;;5145034;27;20061;-61
2021/12/16 18:05:43;;;;;;;107.93;27.90;;;;;;;;;;5137870;27;20398;-61
2021/12/16 18:08:09;;;;;;;110.80;28.50;;;;;;;;;;5142316;27;20039;-60
2021/12/16 18:10:37;;;;;;;150.15;36.60;;;;;;;;;;5143544;27;20049;-61
2021/12/16 18:13:03;;;;;;;163.20;40.72;;;;;;;;;;5138317;27;20121;-61
2021/12/16 18:15:31;;;;;;;149.07;30.33;;;;;;;;;;5124088;27;20046;-61
2021/12/16 18:18:04;;;;;;;160.35;30.00;;;;;;;;;;5136301;27;20047;-60
2021/12/16 18:20:33;;;;;;;122.15;25.90;;;;;;;;;;5142404;27;20050;-61